createdAt,value
2017-06-04T00:02:19.367Z,100509.59
2017-06-04T00:04:52.174Z,100502.43
2017-06-04T00:07:25.928Z,100510.75
2017-06-04T00:09:58.832Z,100509.22
2017-06-04T00:12:45.214Z,100510.17
2017-06-04T00:15:18.576Z,100505.48
2017-06-04T00:17:52.406Z,100507.42
2017-06-04T00:20:26.558Z,100510.56
2017-06-04T00:23:00.769Z,100512.23
2017-06-04T00:25:33.817Z,100512.92
2017-06-04T00:28:07.184Z,100518.22
2017-06-04T00:30:41.216Z,100519.20
2017-06-04T00:33:15.181Z,100518.83
2017-06-04T00:35:49.278Z,100529.16
2017-06-04T00:38:22.699Z,100516.83
2017-06-04T00:40:56.821Z,100512.09
2017-06-04T00:43:29.350Z,100519.07
2017-06-04T00:46:02.062Z,100514.44
2017-06-04T00:48:34.671Z,100511.28
2017-06-04T00:51:08.026Z,100508.27
2017-06-04T00:53:42.034Z,100509.69
2017-06-04T00:56:15.507Z,100515.79
2017-06-04T00:58:48.225Z,100518.86
2017-06-04T01:01:21.715Z,100525.64
2017-06-04T01:03:55.628Z,100520.81
2017-06-04T01:06:25.701Z,100517.17
2017-06-04T01:08:58.744Z,100514.78
2017-06-04T01:11:28.847Z,100523.91
2017-06-04T01:14:02.125Z,100528.83
2017-06-04T01:16:35.011Z,100529.51
2017-06-04T01:19:07.823Z,100533.38
2017-06-04T01:21:40.704Z,100539.15
2017-06-04T01:24:13.708Z,100527.70
2017-06-04T01:26:46.663Z,100528.60
2017-06-04T01:29:19.439Z,100521.61
2017-06-04T01:31:52.003Z,100534.06
2017-06-04T01:34:22.049Z,100529.54
2017-06-04T01:36:58.381Z,100525.46
2017-06-04T01:39:28.830Z,100530.48
2017-06-04T01:42:01.368Z,100530.16
2017-06-04T01:44:34.150Z,100531.78
2017-06-04T01:47:07.091Z,100524.92
2017-06-04T01:49:40.824Z,100525.25
2017-06-04T01:52:13.629Z,100527.86
2017-06-04T01:54:46.266Z,100530.80
2017-06-04T01:57:16.795Z,100527.89
2017-06-04T01:59:47.396Z,100527.80
2017-06-04T02:02:20.298Z,100533.25
2017-06-04T02:04:53.029Z,100528.19
2017-06-04T02:07:25.350Z,100525.97
2017-06-04T02:09:58.042Z,100528.66
2017-06-04T02:12:30.686Z,100527.24
2017-06-04T02:15:03.864Z,100531.11
2017-06-04T02:17:46.971Z,100533.07
2017-06-04T02:20:20.129Z,100530.27
2017-06-04T02:22:52.851Z,100525.36
2017-06-04T02:25:22.903Z,100533.81
2017-06-04T02:27:55.543Z,100522.73
2017-06-04T02:30:28.246Z,100525.61
2017-06-04T02:33:02.767Z,100526.56
2017-06-04T02:35:35.011Z,100529.63
2017-06-04T02:38:07.671Z,100530.40
2017-06-04T02:40:42.503Z,100529.73
2017-06-04T02:43:12.919Z,100535.51
2017-06-04T02:45:45.401Z,100536.44
2017-06-04T02:48:18.183Z,100530.99
2017-06-04T02:50:51.874Z,100537.98
2017-06-04T02:53:25.581Z,100536.39
2017-06-04T02:55:59.268Z,100533.70
2017-06-04T02:58:33.135Z,100537.80
2017-06-04T03:01:07.019Z,100538.08
2017-06-04T03:03:40.967Z,100536.10
2017-06-04T03:06:14.451Z,100541.61
2017-06-04T03:08:47.411Z,100546.57
2017-06-04T03:11:17.697Z,100546.58
2017-06-04T03:13:50.883Z,100548.59
2017-06-04T03:16:24.230Z,100549.58
2017-06-04T03:18:56.934Z,100541.62
2017-06-04T03:21:29.650Z,100544.73
2017-06-04T03:23:59.697Z,100555.09
2017-06-04T03:26:30.175Z,100543.40
2017-06-04T03:29:02.600Z,100548.80
2017-06-04T03:31:35.295Z,100556.48
2017-06-04T03:34:05.403Z,100554.63
2017-06-04T03:36:37.649Z,100554.31
2017-06-04T03:39:10.540Z,100559.84
2017-06-04T03:41:43.386Z,100560.92
2017-06-04T03:44:16.101Z,100562.03
2017-06-04T03:46:48.798Z,100562.14
2017-06-04T03:49:30.629Z,100558.44
2017-06-04T03:52:00.614Z,100554.84
2017-06-04T03:54:33.126Z,100547.52
2017-06-04T03:57:05.864Z,100559.94
2017-06-04T03:59:39.694Z,100562.91
2017-06-04T04:02:09.773Z,100563.92
2017-06-04T04:04:42.350Z,100562.26
2017-06-04T04:07:15.141Z,100558.43
2017-06-04T04:09:48.097Z,100560.30
2017-06-04T04:12:20.807Z,100562.92
2017-06-04T04:14:53.546Z,100565.73
2017-06-04T04:17:26.092Z,100568.95
2017-06-04T04:19:59.027Z,100560.72
2017-06-04T04:22:31.419Z,100553.71
2017-06-04T04:25:04.129Z,100559.64
2017-06-04T04:27:36.656Z,100566.21
2017-06-04T04:30:09.323Z,100561.36
2017-06-04T04:32:42.045Z,100560.46
2017-06-04T04:35:15.250Z,100552.33
2017-06-04T04:37:47.901Z,100563.73
2017-06-04T04:40:20.550Z,100559.55
2017-06-04T04:42:53.372Z,100558.06
2017-06-04T04:45:25.990Z,100565.23
2017-06-04T04:47:58.638Z,100563.55
2017-06-04T04:50:31.702Z,100557.84
2017-06-04T04:53:04.361Z,100557.84
2017-06-04T04:55:34.537Z,100557.11
2017-06-04T04:58:06.910Z,100559.34
2017-06-04T05:00:39.660Z,100560.21
2017-06-04T05:03:12.316Z,100566.45
2017-06-04T05:05:45.016Z,100569.66
2017-06-04T05:08:17.682Z,100569.42
2017-06-04T05:10:50.575Z,100574.16
2017-06-04T05:13:20.746Z,100567.98
2017-06-04T05:15:53.156Z,100581.55
2017-06-04T05:18:25.909Z,100584.10
2017-06-04T05:20:58.899Z,100584.48
2017-06-04T05:23:31.875Z,100579.80
2017-06-04T05:26:07.207Z,100588.75
2017-06-04T05:28:45.881Z,100588.73
2017-06-04T05:31:15.965Z,100602.39
2017-06-04T05:33:49.457Z,100605.11
2017-06-04T05:36:22.092Z,100610.61
2017-06-04T05:38:54.762Z,100608.94
2017-06-04T05:41:27.119Z,100611.72
2017-06-04T05:43:59.900Z,100615.34
2017-06-04T05:46:32.423Z,100611.53
2017-06-04T05:49:04.856Z,100620.48
2017-06-04T05:51:37.490Z,100623.59
2017-06-04T05:54:09.892Z,100618.68
2017-06-04T05:56:42.383Z,100631.73
2017-06-04T05:59:08.731Z,100628.11
2017-06-04T06:01:41.599Z,100641.39
2017-06-04T06:04:14.351Z,100629.50
2017-06-04T06:06:47.288Z,100629.14
2017-06-04T06:09:13.657Z,100632.25
2017-06-04T06:11:40.004Z,100633.56
2017-06-04T06:14:06.376Z,100642.60
2017-06-04T06:16:39.068Z,100644.25
2017-06-04T06:19:12.183Z,100645.38
2017-06-04T06:21:42.444Z,100643.97
2017-06-04T06:24:14.788Z,100642.30
2017-06-04T06:26:47.868Z,100645.00
2017-06-04T06:29:14.228Z,100648.56
2017-06-04T06:31:43.914Z,100650.50
2017-06-04T06:34:10.263Z,100650.80
2017-06-04T06:36:36.612Z,100658.78
2017-06-04T06:39:03.081Z,100654.83
2017-06-04T06:41:29.419Z,100655.95
2017-06-04T06:43:55.770Z,100662.92
2017-06-04T06:46:22.106Z,100668.09
2017-06-04T06:48:55.238Z,100665.18
2017-06-04T06:51:25.650Z,100672.97
2017-06-04T06:53:56.687Z,100671.48
2017-06-04T06:56:29.115Z,100675.72
2017-06-04T06:58:55.473Z,100681.74
2017-06-04T07:01:21.837Z,100682.21
2017-06-04T07:03:48.212Z,100687.28
2017-06-04T07:06:14.560Z,100681.93
2017-06-04T07:08:49.308Z,100685.91
2017-06-04T07:11:22.162Z,100698.38
2017-06-04T07:13:48.524Z,100694.56
2017-06-04T07:16:14.889Z,100688.13
2017-06-04T07:18:41.241Z,100699.22
2017-06-04T07:21:07.598Z,100697.40
2017-06-04T07:23:33.988Z,100695.44
2017-06-04T07:28:53.144Z,100695.89
2017-06-04T07:31:19.512Z,100703.00
2017-06-04T07:33:45.913Z,100701.91
2017-06-04T07:36:12.271Z,100703.10
2017-06-04T07:41:31.571Z,100708.98
2017-06-04T07:43:57.906Z,100713.48
2017-06-04T07:46:24.227Z,100707.70
2017-06-04T07:48:50.558Z,100708.64
2017-06-04T07:51:16.943Z,100708.06
2017-06-04T07:53:43.335Z,100713.22
2017-06-04T07:56:09.696Z,100717.11
2017-06-04T07:58:36.666Z,100716.83
2017-06-04T08:01:03.035Z,100714.42
2017-06-04T08:03:29.443Z,100716.51
2017-06-04T08:05:55.838Z,100714.50
2017-06-04T08:08:22.226Z,100714.62
2017-06-04T08:10:48.564Z,100709.41
2017-06-04T08:13:14.895Z,100713.99
2017-06-04T08:15:41.223Z,100716.55
2017-06-04T08:18:07.661Z,100717.53
2017-06-04T08:20:33.995Z,100720.92
2017-06-04T08:23:00.346Z,100723.81
2017-06-04T08:25:26.713Z,100724.22
2017-06-04T08:27:53.074Z,100727.44
2017-06-04T08:30:19.475Z,100726.94
2017-06-04T08:32:45.834Z,100738.62
2017-06-04T08:35:12.184Z,100736.53
2017-06-04T08:37:38.510Z,100741.87
2017-06-04T08:40:04.865Z,100742.13
2017-06-04T08:42:31.215Z,100746.09
2017-06-04T08:44:57.566Z,100742.91
2017-06-04T08:47:23.923Z,100737.80
2017-06-04T08:49:50.284Z,100743.79
2017-06-04T08:52:16.659Z,100740.97
2017-06-04T08:54:43.032Z,100734.70
2017-06-04T08:57:09.378Z,100737.94
2017-06-04T08:59:35.729Z,100735.72
2017-06-04T09:02:02.079Z,100733.59
2017-06-04T09:04:28.469Z,100740.72
2017-06-04T09:06:54.885Z,100737.19
2017-06-04T09:09:21.223Z,100739.23
2017-06-04T09:12:12.092Z,100741.14
2017-06-04T09:14:38.570Z,100737.52
2017-06-04T09:17:04.935Z,100743.77
2017-06-04T09:19:31.297Z,100748.01
2017-06-04T09:21:57.661Z,100744.26
2017-06-04T09:24:24.028Z,100752.09
2017-06-04T09:26:50.389Z,100752.59
2017-06-04T09:29:16.734Z,100760.46
2017-06-04T09:31:43.091Z,100761.43
2017-06-04T09:34:09.484Z,100770.69
2017-06-04T09:36:35.862Z,100772.44
2017-06-04T09:39:02.310Z,100767.92
2017-06-04T09:41:28.669Z,100768.45
2017-06-04T09:43:55.043Z,100769.72
2017-06-04T09:46:21.402Z,100763.53
2017-06-04T09:48:47.799Z,100759.30
2017-06-04T09:51:14.162Z,100758.28
2017-06-04T09:53:40.521Z,100766.09
2017-06-04T09:56:06.879Z,100761.77
2017-06-04T09:58:33.239Z,100766.62
2017-06-04T10:00:59.578Z,100764.45
2017-06-04T10:03:31.859Z,100765.68
2017-06-04T10:06:04.329Z,100762.68
2017-06-04T10:08:30.717Z,100764.68
2017-06-04T10:11:05.410Z,100761.19
2017-06-04T10:13:31.784Z,100763.53
2017-06-04T10:15:58.156Z,100762.88
2017-06-04T10:18:24.534Z,100772.58
2017-06-04T10:20:50.959Z,100776.59
2017-06-04T10:23:17.317Z,100771.20
2017-06-04T10:25:43.673Z,100781.63
2017-06-04T10:28:10.041Z,100782.63
2017-06-04T10:30:36.382Z,100782.71
2017-06-04T10:33:02.782Z,100780.44
2017-06-04T10:35:29.135Z,100773.92
2017-06-04T10:37:55.561Z,100775.34
2017-06-04T10:40:21.949Z,100779.42
2017-06-04T10:42:54.451Z,100775.64
2017-06-04T10:45:26.870Z,100777.43
2017-06-04T10:47:59.097Z,100774.73
2017-06-04T10:53:18.012Z,100765.98
2017-06-04T10:55:44.378Z,100766.22
2017-06-04T10:58:16.807Z,100750.81
2017-06-04T11:00:43.167Z,100752.98
2017-06-04T11:03:09.585Z,100752.14
2017-06-04T11:05:35.966Z,100755.28
2017-06-04T11:08:19.413Z,100755.94
2017-06-04T11:10:45.802Z,100754.86
2017-06-04T11:13:20.544Z,100757.91
2017-06-04T11:15:50.663Z,100760.22
2017-06-04T11:18:23.930Z,100767.58
2017-06-04T11:20:57.003Z,100764.09
2017-06-04T11:23:30.730Z,100759.89
2017-06-04T11:26:01.644Z,100772.95
2017-06-04T11:28:34.247Z,100772.00
2017-06-04T11:31:06.942Z,100780.98
2017-06-04T11:33:36.690Z,100770.76
2017-06-04T11:36:09.085Z,100769.16
2017-06-04T11:38:39.115Z,100762.75
2017-06-04T11:41:11.536Z,100762.63
2017-06-04T11:43:44.245Z,100768.95
2017-06-04T11:46:14.383Z,100767.09
2017-06-04T11:48:40.974Z,100753.75
2017-06-04T11:51:07.314Z,100748.70
2017-06-04T11:53:33.931Z,100751.75
2017-06-04T11:56:00.422Z,100750.22
2017-06-04T11:58:33.326Z,100747.94
2017-06-04T12:01:04.208Z,100747.06
2017-06-04T12:03:39.012Z,100747.09
2017-06-04T12:06:11.555Z,100749.40
2017-06-04T12:08:44.255Z,100761.27
2017-06-04T12:11:14.051Z,100754.41
2017-06-04T12:13:40.483Z,100763.77
2017-06-04T12:16:10.629Z,100767.05
2017-06-04T12:18:42.984Z,100763.56
2017-06-04T12:24:01.811Z,100760.48
2017-06-04T12:26:28.962Z,100753.81
2017-06-04T12:28:56.299Z,100757.59
2017-06-04T12:31:22.713Z,100759.05
2017-06-04T12:33:49.080Z,100750.92
2017-06-04T12:36:16.042Z,100755.39
2017-06-04T12:38:43.056Z,100748.81
2017-06-04T12:41:10.173Z,100754.07
2017-06-04T12:43:37.252Z,100746.67
2017-06-04T12:46:03.907Z,100749.59
2017-06-04T12:48:30.635Z,100754.42
2017-06-04T12:50:57.002Z,100752.46
2017-06-04T12:53:23.355Z,100760.45
2017-06-04T12:55:50.546Z,100753.98
2017-06-04T12:58:17.686Z,100762.46
2017-06-04T13:00:44.720Z,100771.58
2017-06-04T13:03:11.260Z,100773.35
2017-06-04T13:05:37.634Z,100774.27
2017-06-04T13:08:03.993Z,100769.53
2017-06-04T13:10:30.690Z,100767.78
2017-06-04T13:13:01.334Z,100777.65
2017-06-04T13:15:34.301Z,100765.81
2017-06-04T13:18:07.168Z,100763.15
2017-06-04T13:20:39.376Z,100767.59
2017-06-04T13:23:05.721Z,100763.98
2017-06-04T13:25:36.130Z,100758.67
2017-06-04T13:28:02.504Z,100766.66
2017-06-04T13:30:28.842Z,100773.61
2017-06-04T13:32:55.624Z,100779.70
2017-06-04T13:35:28.601Z,100781.03
2017-06-04T13:37:55.012Z,100793.64
2017-06-04T13:40:21.503Z,100791.19
2017-06-04T13:42:47.894Z,100792.78
2017-06-04T13:45:14.260Z,100797.02
2017-06-04T13:47:40.654Z,100796.91
2017-06-04T13:50:06.979Z,100794.84
2017-06-04T13:52:33.344Z,100794.50
2017-06-04T13:54:59.690Z,100799.66
2017-06-04T13:57:26.055Z,100803.47
2017-06-04T13:59:52.443Z,100794.48
2017-06-04T14:02:19.389Z,100791.92
2017-06-04T14:04:46.429Z,100796.30
2017-06-04T14:07:12.843Z,100793.88
2017-06-04T14:09:39.175Z,100795.83
2017-06-04T14:12:05.505Z,100794.64
2017-06-04T14:14:32.806Z,100793.95
2017-06-04T14:16:59.171Z,100796.66
2017-06-04T14:19:32.167Z,100796.92
2017-06-04T14:22:05.254Z,100794.01
2017-06-04T14:24:38.199Z,100802.38
2017-06-04T14:27:28.525Z,100804.34
2017-06-04T14:30:01.595Z,100805.53
2017-06-04T14:32:33.877Z,100803.88
2017-06-04T14:35:06.433Z,100804.82
2017-06-04T14:37:39.172Z,100809.87
2017-06-04T14:40:12.165Z,100805.37
2017-06-04T14:42:45.328Z,100804.29
2017-06-04T14:45:18.046Z,100803.32
2017-06-04T14:47:50.869Z,100805.16
2017-06-04T14:50:24.354Z,100807.29
2017-06-04T14:52:51.416Z,100802.83
2017-06-04T14:55:18.574Z,100805.77
2017-06-04T14:57:44.977Z,100810.47
2017-06-04T15:00:12.236Z,100814.78
2017-06-04T15:02:39.347Z,100810.09
2017-06-04T15:05:11.692Z,100817.91
2017-06-04T15:08:01.922Z,100806.72
2017-06-04T15:10:32.109Z,100808.19
2017-06-04T15:13:03.000Z,100803.17
2017-06-04T15:15:36.162Z,100812.81
2017-06-04T15:18:19.585Z,100812.44
2017-06-04T15:20:52.223Z,100819.66
2017-06-04T15:23:18.719Z,100813.85
2017-06-04T15:25:45.080Z,100816.80
2017-06-04T15:28:11.402Z,100810.23
2017-06-04T15:30:44.208Z,100808.03
2017-06-04T15:33:16.878Z,100811.22
2017-06-04T15:35:49.639Z,100817.59
2017-06-04T15:38:20.087Z,100821.69
2017-06-04T15:40:52.711Z,100820.70
2017-06-04T15:43:25.601Z,100817.27
2017-06-04T15:45:56.105Z,100821.83
2017-06-04T15:48:28.867Z,100824.66
2017-06-04T15:51:01.155Z,100829.78
2017-06-04T15:53:34.494Z,100835.84
2017-06-04T15:56:01.138Z,100833.64
2017-06-04T15:58:28.137Z,100839.11
2017-06-04T16:00:56.571Z,100841.67
2017-06-04T16:03:22.943Z,100831.39
2017-06-04T16:05:49.433Z,100829.41
2017-06-04T16:08:15.788Z,100826.33
2017-06-04T16:10:42.271Z,100835.03
2017-06-04T16:13:08.638Z,100832.81
2017-06-04T16:15:35.630Z,100832.53
2017-06-04T16:18:02.054Z,100840.96
2017-06-04T16:20:28.407Z,100844.20
2017-06-04T16:22:54.754Z,100843.81
2017-06-04T16:25:21.796Z,100846.70
2017-06-04T16:27:48.185Z,100838.88
2017-06-04T16:30:14.554Z,100841.08
2017-06-04T16:32:41.677Z,100841.47
2017-06-04T16:35:08.967Z,100837.36
2017-06-04T16:37:35.422Z,100835.88
2017-06-04T16:40:01.815Z,100837.28
2017-06-04T16:42:28.181Z,100837.52
2017-06-04T16:44:55.159Z,100834.28
2017-06-04T16:47:21.531Z,100837.00
2017-06-04T16:49:48.011Z,100830.68
2017-06-04T16:52:14.355Z,100837.28
2017-06-04T16:54:40.730Z,100836.14
2017-06-04T16:57:07.091Z,100830.19
2017-06-04T16:59:33.510Z,100834.66
2017-06-04T17:01:59.958Z,100827.41
2017-06-04T17:04:26.328Z,100835.28
2017-06-04T17:06:59.374Z,100832.30
2017-06-04T17:09:25.777Z,100829.45
2017-06-04T17:11:52.171Z,100822.83
2017-06-04T17:14:24.419Z,100823.09
2017-06-04T17:16:57.131Z,100821.75
2017-06-04T17:19:29.853Z,100826.16
2017-06-04T17:21:56.274Z,100820.69
2017-06-04T17:24:22.631Z,100817.52
2017-06-04T17:26:55.930Z,100819.58
2017-06-04T17:29:28.348Z,100815.94
2017-06-04T17:32:00.965Z,100821.23
2017-06-04T17:34:33.556Z,100822.46
2017-06-04T17:37:05.915Z,100823.46
2017-06-04T17:39:38.593Z,100822.19
2017-06-04T17:42:08.600Z,100812.66
2017-06-04T17:44:41.161Z,100811.24
2017-06-04T17:47:11.552Z,100815.67
2017-06-04T17:49:43.893Z,100818.05
2017-06-04T17:52:16.597Z,100816.31
2017-06-04T17:54:46.937Z,100814.50
2017-06-04T17:57:19.845Z,100813.75
2017-06-04T17:59:52.913Z,100816.16
2017-06-04T18:02:25.245Z,100814.58
2017-06-04T18:04:58.073Z,100813.67
2017-06-04T18:07:30.676Z,100813.50
2017-06-04T18:10:03.600Z,100812.14
2017-06-04T18:12:36.076Z,100821.95
2017-06-04T18:15:02.453Z,100816.50
2017-06-04T18:17:29.392Z,100818.45
2017-06-04T18:19:55.735Z,100825.75
2017-06-04T18:22:22.158Z,100822.58
2017-06-04T18:24:48.521Z,100822.24
2017-06-04T18:27:15.097Z,100821.63
2017-06-04T18:29:41.485Z,100824.73
2017-06-04T18:32:07.849Z,100823.55
2017-06-04T18:34:34.214Z,100829.88
2017-06-04T18:37:00.543Z,100833.20
2017-06-04T18:39:26.955Z,100835.63
2017-06-04T18:41:53.371Z,100827.34
2017-06-04T18:44:25.951Z,100826.49
2017-06-04T18:46:58.923Z,100829.00
2017-06-04T18:49:29.083Z,100828.70
2017-06-04T18:52:01.316Z,100832.73
2017-06-04T18:57:20.296Z,100835.14
2017-06-04T18:59:46.645Z,100843.15
2017-06-04T19:02:13.033Z,100849.03
2017-06-04T19:04:39.446Z,100837.14
2017-06-04T19:07:05.835Z,100840.52
2017-06-04T19:09:32.236Z,100842.87
2017-06-04T19:11:58.615Z,100837.37
2017-06-04T19:14:25.032Z,100840.23
2017-06-04T19:16:51.415Z,100841.71
2017-06-04T19:19:24.557Z,100840.10
2017-06-04T19:21:57.081Z,100844.03
2017-06-04T19:24:43.107Z,100846.42
2017-06-04T19:27:09.607Z,100850.02
2017-06-04T19:29:36.023Z,100859.95
2017-06-04T19:32:02.813Z,100860.52
2017-06-04T19:34:29.214Z,100862.78
2017-06-04T19:37:02.239Z,100869.67
2017-06-04T19:39:37.691Z,100870.02
2017-06-04T19:42:19.885Z,100874.84
2017-06-04T19:44:52.522Z,100878.32
2017-06-04T19:47:24.941Z,100872.63
2017-06-04T19:49:57.560Z,100882.58
2017-06-04T19:52:30.106Z,100882.90
2017-06-04T19:55:03.006Z,100888.48
2017-06-04T19:57:35.596Z,100887.30
2017-06-04T20:00:02.029Z,100890.77
2017-06-04T20:02:28.438Z,100885.77
2017-06-04T20:04:54.780Z,100889.20
2017-06-04T20:07:21.222Z,100896.86
2017-06-04T20:09:53.578Z,100904.22
2017-06-04T20:12:26.455Z,100902.39
2017-06-04T20:14:56.645Z,100901.73
2017-06-04T20:17:28.894Z,100913.45
2017-06-04T20:20:01.662Z,100905.02
2017-06-04T20:22:34.448Z,100912.23
2017-06-04T20:25:07.271Z,100906.50
2017-06-04T20:27:39.631Z,100915.70
2017-06-04T20:30:26.434Z,100913.09
2017-06-04T20:32:52.797Z,100912.34
2017-06-04T20:35:19.175Z,100916.06
2017-06-04T20:37:52.069Z,100912.98
2017-06-04T20:40:33.382Z,100921.18
2017-06-04T20:43:07.245Z,100913.61
2017-06-04T20:45:39.893Z,100916.45
2017-06-04T20:48:12.717Z,100921.13
2017-06-04T20:50:45.656Z,100922.20
2017-06-04T20:53:18.359Z,100920.02
2017-06-04T20:55:51.220Z,100915.62
2017-06-04T20:58:23.738Z,100917.66
2017-06-04T21:00:56.561Z,100916.95
2017-06-04T21:03:31.128Z,100911.44
2017-06-04T21:06:03.709Z,100916.62
2017-06-04T21:08:30.066Z,100917.33
2017-06-04T21:11:02.456Z,100920.80
2017-06-04T21:13:35.795Z,100919.51
2017-06-04T21:16:06.434Z,100920.90
2017-06-04T21:18:39.771Z,100924.84
2017-06-04T21:21:06.131Z,100927.50
2017-06-04T21:23:39.002Z,100922.77
2017-06-04T21:26:11.609Z,100920.12
2017-06-04T21:28:38.037Z,100913.34
2017-06-04T21:31:10.440Z,100908.28
2017-06-04T21:33:42.719Z,100908.42
2017-06-04T21:36:09.127Z,100911.43
2017-06-04T21:38:36.357Z,100910.48
2017-06-04T21:41:02.753Z,100917.05
2017-06-04T21:43:29.103Z,100914.55
2017-06-04T21:46:01.920Z,100921.41
2017-06-04T21:48:31.543Z,100924.00
2017-06-04T21:50:57.879Z,100909.71
2017-06-04T21:53:24.239Z,100914.73
2017-06-04T21:55:50.591Z,100917.80
2017-06-04T21:58:16.915Z,100920.91
2017-06-04T22:00:43.272Z,100924.27
2017-06-04T22:03:09.670Z,100923.77
2017-06-04T22:05:36.017Z,100915.93
2017-06-04T22:08:02.372Z,100925.69
2017-06-04T22:10:28.678Z,100920.89
2017-06-04T22:12:55.074Z,100918.06
2017-06-04T22:15:21.406Z,100913.03
2017-06-04T22:17:47.738Z,100911.19
2017-06-04T22:20:14.078Z,100912.37
2017-06-04T22:22:40.643Z,100917.84
2017-06-04T22:25:06.980Z,100920.78
2017-06-04T22:27:33.303Z,100926.20
2017-06-04T22:29:59.657Z,100920.92
2017-06-04T22:32:26.420Z,100919.73
2017-06-04T22:34:52.755Z,100915.23
2017-06-04T22:37:19.117Z,100916.97
2017-06-04T22:39:45.538Z,100914.94
2017-06-04T22:42:11.862Z,100918.33
2017-06-04T22:44:42.129Z,100912.01
2017-06-04T22:47:08.496Z,100914.93
2017-06-04T22:49:34.830Z,100908.84
2017-06-04T22:52:07.922Z,100920.66
2017-06-04T22:54:40.869Z,100916.23
2017-06-04T22:57:10.913Z,100911.97
2017-06-04T22:59:43.148Z,100906.12
2017-06-04T23:02:15.943Z,100906.95
2017-06-04T23:07:38.000Z,100908.45
2017-06-04T23:10:04.311Z,100910.78
2017-06-04T23:12:30.642Z,100908.02
2017-06-04T23:14:57.020Z,100914.06
2017-06-04T23:17:23.365Z,100916.06
2017-06-04T23:19:49.702Z,100922.83
2017-06-04T23:22:16.039Z,100926.70
2017-06-04T23:24:42.438Z,100927.16
2017-06-04T23:27:08.811Z,100923.08
2017-06-04T23:29:35.133Z,100929.15
2017-06-04T23:32:01.438Z,100927.61
2017-06-04T23:34:27.792Z,100927.59
2017-06-04T23:36:54.165Z,100932.41
2017-06-04T23:39:20.517Z,100928.16
2017-06-04T23:41:46.867Z,100929.09
2017-06-04T23:44:13.220Z,100924.81
2017-06-04T23:46:39.566Z,100931.91
2017-06-04T23:49:05.883Z,100932.02
2017-06-04T23:51:32.226Z,100943.53
2017-06-04T23:53:58.639Z,100943.24
2017-06-04T23:56:24.962Z,100932.06
2017-06-04T23:58:51.284Z,100941.89
